sensor_id;sensor_type;location;lat;lon;timestamp;temperature;humidity
15564;DHT22;7883;52.554;13.364;2023-03-31T00:01:27;11.80;99.90
15564;DHT22;7883;52.554;13.364;2023-03-31T00:03:54;11.90;99.90
15564;DHT22;7883;52.554;13.364;2023-03-31T00:06:30;11.90;99.90
15564;DHT22;7883;52.554;13.364;2023-03-31T00:09:02;11.80;99.90
15564;DHT22;7883;52.554;13.364;2023-03-31T00:11:29;11.80;99.90
15564;DHT22;7883;52.554;13.364;2023-03-31T00:13:56;11.80;99.90
15564;DHT22;7883;52.554;13.364;2023-03-31T00:16:23;11.80;99.90
15564;DHT22;7883;52.554;13.364;2023-03-31T00:18:51;11.80;99.90
15564;DHT22;7883;52.554;13.364;2023-03-31T00:21:19;11.80;99.90
15564;DHT22;7883;52.554;13.364;2023-03-31T00:24:01;11.80;99.90
15564;DHT22;7883;52.554;13.364;2023-03-31T00:26:28;11.80;99.90
15564;DHT22;7883;52.554;13.364;2023-03-31T00:28:56;11.80;99.90
15564;DHT22;7883;52.554;13.364;2023-03-31T00:31:24;11.80;99.90
15564;DHT22;7883;52.554;13.364;2023-03-31T00:33:51;11.80;99.90
15564;DHT22;7883;52.554;13.364;2023-03-31T00:36:20;11.80;99.90
15564;DHT22;7883;52.554;13.364;2023-03-31T00:38:51;11.80;99.90
15564;DHT22;7883;52.554;13.364;2023-03-31T00:41:20;11.80;99.90
15564;DHT22;7883;52.554;13.364;2023-03-31T00:44:15;11.80;99.90
15564;DHT22;7883;52.554;13.364;2023-03-31T00:46:47;11.90;99.90
15564;DHT22;7883;52.554;13.364;2023-03-31T00:49:20;11.80;99.90
15564;DHT22;7883;52.554;13.364;2023-03-31T00:51:49;11.80;99.90
15564;DHT22;7883;52.554;13.364;2023-03-31T00:54:20;11.80;99.90
15564;DHT22;7883;52.554;13.364;2023-03-31T00:56:53;11.80;99.90
15564;DHT22;7883;52.554;13.364;2023-03-31T00:59:25;11.70;99.90
15564;DHT22;7883;52.554;13.364;2023-03-31T01:01:54;11.70;99.90
15564;DHT22;7883;52.554;13.364;2023-03-31T01:04:29;11.70;99.90
15564;DHT22;7883;52.554;13.364;2023-03-31T01:07:02;11.70;99.90
15564;DHT22;7883;52.554;13.364;2023-03-31T01:09:31;11.70;99.90
15564;DHT22;7883;52.554;13.364;2023-03-31T01:12:07;11.70;99.90
15564;DHT22;7883;52.554;13.364;2023-03-31T01:14:35;11.70;99.90
15564;DHT22;7883;52.554;13.364;2023-03-31T01:17:02;11.70;99.90
15564;DHT22;7883;52.554;13.364;2023-03-31T01:19:39;11.60;99.90
15564;DHT22;7883;52.554;13.364;2023-03-31T01:22:40;11.60;99.90
15564;DHT22;7883;52.554;13.364;2023-03-31T01:25:32;11.50;99.90
15564;DHT22;7883;52.554;13.364;2023-03-31T01:28:12;11.50;99.90
15564;DHT22;7883;52.554;13.364;2023-03-31T01:31:06;11.50;99.90
15564;DHT22;7883;52.554;13.364;2023-03-31T01:33:59;11.40;99.90
15564;DHT22;7883;52.554;13.364;2023-03-31T01:36:56;11.40;99.90
15564;DHT22;7883;52.554;13.364;2023-03-31T01:42:29;11.40;99.90
15564;DHT22;7883;52.554;13.364;2023-03-31T01:45:06;11.40;99.90
15564;DHT22;7883;52.554;13.364;2023-03-31T01:47:39;11.40;99.90
15564;DHT22;7883;52.554;13.364;2023-03-31T01:50:15;11.30;99.90
15564;DHT22;7883;52.554;13.364;2023-03-31T01:52:46;11.30;99.90
15564;DHT22;7883;52.554;13.364;2023-03-31T01:55:20;11.30;99.90
15564;DHT22;7883;52.554;13.364;2023-03-31T01:57:52;11.40;99.90
15564;DHT22;7883;52.554;13.364;2023-03-31T02:00:25;11.30;99.90
15564;DHT22;7883;52.554;13.364;2023-03-31T02:02:56;11.40;99.90
15564;DHT22;7883;52.554;13.364;2023-03-31T02:05:26;11.30;99.90
15564;DHT22;7883;52.554;13.364;2023-03-31T02:07:58;11.30;99.90
15564;DHT22;7883;52.554;13.364;2023-03-31T02:10:29;11.30;99.90
15564;DHT22;7883;52.554;13.364;2023-03-31T02:12:59;11.30;99.90
15564;DHT22;7883;52.554;13.364;2023-03-31T02:15:29;11.30;99.90
15564;DHT22;7883;52.554;13.364;2023-03-31T02:17:58;11.30;99.90
15564;DHT22;7883;52.554;13.364;2023-03-31T02:20:28;11.30;99.90
15564;DHT22;7883;52.554;13.364;2023-03-31T02:22:57;11.40;99.90
15564;DHT22;7883;52.554;13.364;2023-03-31T02:25:29;11.40;99.90
15564;DHT22;7883;52.554;13.364;2023-03-31T02:28:00;11.40;99.90
15564;DHT22;7883;52.554;13.364;2023-03-31T02:30:35;11.40;99.90
15564;DHT22;7883;52.554;13.364;2023-03-31T02:33:04;11.40;99.90
15564;DHT22;7883;52.554;13.364;2023-03-31T02:35:32;11.40;99.90
15564;DHT22;7883;52.554;13.364;2023-03-31T02:38:01;11.40;99.90
15564;DHT22;7883;52.554;13.364;2023-03-31T02:40:32;11.40;99.90
15564;DHT22;7883;52.554;13.364;2023-03-31T02:43:01;11.40;99.90
15564;DHT22;7883;52.554;13.364;2023-03-31T02:45:49;11.50;99.90
15564;DHT22;7883;52.554;13.364;2023-03-31T02:48:18;11.50;99.90
15564;DHT22;7883;52.554;13.364;2023-03-31T02:51:08;11.50;99.90
15564;DHT22;7883;52.554;13.364;2023-03-31T02:53:49;11.50;99.90
15564;DHT22;7883;52.554;13.364;2023-03-31T02:56:33;11.50;99.90
15564;DHT22;7883;52.554;13.364;2023-03-31T02:59:15;11.50;99.90
15564;DHT22;7883;52.554;13.364;2023-03-31T03:01:56;11.60;99.90
15564;DHT22;7883;52.554;13.364;2023-03-31T03:04:36;11.60;99.90
15564;DHT22;7883;52.554;13.364;2023-03-31T03:07:15;11.60;99.90
15564;DHT22;7883;52.554;13.364;2023-03-31T03:09:48;11.50;99.90
15564;DHT22;7883;52.554;13.364;2023-03-31T03:12:23;11.50;99.90
15564;DHT22;7883;52.554;13.364;2023-03-31T03:14:56;11.50;99.90
15564;DHT22;7883;52.554;13.364;2023-03-31T03:17:27;11.50;99.90
15564;DHT22;7883;52.554;13.364;2023-03-31T03:19:58;11.60;99.90
15564;DHT22;7883;52.554;13.364;2023-03-31T03:22:26;11.60;99.90
15564;DHT22;7883;52.554;13.364;2023-03-31T03:24:53;11.60;99.90
15564;DHT22;7883;52.554;13.364;2023-03-31T03:27:20;11.60;99.90
15564;DHT22;7883;52.554;13.364;2023-03-31T03:29:48;11.60;99.90
15564;DHT22;7883;52.554;13.364;2023-03-31T03:32:17;11.70;99.90
15564;DHT22;7883;52.554;13.364;2023-03-31T03:34:43;11.70;99.90
15564;DHT22;7883;52.554;13.364;2023-03-31T03:37:10;11.70;99.90
15564;DHT22;7883;52.554;13.364;2023-03-31T03:39:37;11.70;99.90
15564;DHT22;7883;52.554;13.364;2023-03-31T03:42:04;11.70;99.90
15564;DHT22;7883;52.554;13.364;2023-03-31T03:44:31;11.70;99.90
15564;DHT22;7883;52.554;13.364;2023-03-31T03:46:58;11.70;99.90
15564;DHT22;7883;52.554;13.364;2023-03-31T03:49:26;11.70;99.90
15564;DHT22;7883;52.554;13.364;2023-03-31T03:51:54;11.70;99.90
15564;DHT22;7883;52.554;13.364;2023-03-31T03:54:21;11.80;99.90
15564;DHT22;7883;52.554;13.364;2023-03-31T03:56:48;11.70;99.90
15564;DHT22;7883;52.554;13.364;2023-03-31T03:59:15;11.70;99.90
15564;DHT22;7883;52.554;13.364;2023-03-31T04:01:42;11.70;99.90
15564;DHT22;7883;52.554;13.364;2023-03-31T04:04:09;11.70;99.90
15564;DHT22;7883;52.554;13.364;2023-03-31T04:06:37;11.60;99.90
15564;DHT22;7883;52.554;13.364;2023-03-31T04:09:04;11.60;99.90
15564;DHT22;7883;52.554;13.364;2023-03-31T04:11:32;11.60;99.90
15564;DHT22;7883;52.554;13.364;2023-03-31T04:13:59;11.60;99.90
15564;DHT22;7883;52.554;13.364;2023-03-31T04:16:26;11.60;99.90
15564;DHT22;7883;52.554;13.364;2023-03-31T04:18:53;11.50;99.90
15564;DHT22;7883;52.554;13.364;2023-03-31T04:21:22;11.50;99.90
15564;DHT22;7883;52.554;13.364;2023-03-31T04:23:51;11.60;99.90
15564;DHT22;7883;52.554;13.364;2023-03-31T04:26:25;11.60;99.90
15564;DHT22;7883;52.554;13.364;2023-03-31T04:28:55;11.60;99.90
15564;DHT22;7883;52.554;13.364;2023-03-31T04:31:25;11.60;99.90
15564;DHT22;7883;52.554;13.364;2023-03-31T04:33:56;11.60;99.90
15564;DHT22;7883;52.554;13.364;2023-03-31T04:36:27;11.60;99.90
15564;DHT22;7883;52.554;13.364;2023-03-31T04:38:57;11.50;99.90
15564;DHT22;7883;52.554;13.364;2023-03-31T04:41:24;11.50;99.90
15564;DHT22;7883;52.554;13.364;2023-03-31T04:43:53;11.50;99.90
15564;DHT22;7883;52.554;13.364;2023-03-31T04:46:19;11.60;99.90
15564;DHT22;7883;52.554;13.364;2023-03-31T04:48:46;11.60;99.90
15564;DHT22;7883;52.554;13.364;2023-03-31T04:51:13;11.60;99.90
15564;DHT22;7883;52.554;13.364;2023-03-31T04:53:41;11.60;99.90
15564;DHT22;7883;52.554;13.364;2023-03-31T04:56:09;11.60;99.90
15564;DHT22;7883;52.554;13.364;2023-03-31T04:58:37;11.60;99.90
15564;DHT22;7883;52.554;13.364;2023-03-31T05:01:04;11.60;99.90
15564;DHT22;7883;52.554;13.364;2023-03-31T05:03:32;11.60;99.90
15564;DHT22;7883;52.554;13.364;2023-03-31T05:05:59;11.60;99.90
15564;DHT22;7883;52.554;13.364;2023-03-31T05:08:26;11.70;99.90
15564;DHT22;7883;52.554;13.364;2023-03-31T05:10:53;11.60;99.90
15564;DHT22;7883;52.554;13.364;2023-03-31T05:13:22;11.60;99.90
15564;DHT22;7883;52.554;13.364;2023-03-31T05:15:49;11.50;99.90
15564;DHT22;7883;52.554;13.364;2023-03-31T05:18:16;11.50;99.90
15564;DHT22;7883;52.554;13.364;2023-03-31T05:20:45;11.50;99.90
15564;DHT22;7883;52.554;13.364;2023-03-31T05:23:12;11.50;99.90
15564;DHT22;7883;52.554;13.364;2023-03-31T05:25:39;11.50;99.90
15564;DHT22;7883;52.554;13.364;2023-03-31T05:28:07;11.40;99.90
15564;DHT22;7883;52.554;13.364;2023-03-31T05:30:39;11.40;99.90
15564;DHT22;7883;52.554;13.364;2023-03-31T05:33:06;11.40;99.90
15564;DHT22;7883;52.554;13.364;2023-03-31T05:35:33;11.40;99.90
15564;DHT22;7883;52.554;13.364;2023-03-31T05:38:00;11.40;99.90
15564;DHT22;7883;52.554;13.364;2023-03-31T05:40:28;11.40;99.90
15564;DHT22;7883;52.554;13.364;2023-03-31T05:42:55;11.60;99.90
15564;DHT22;7883;52.554;13.364;2023-03-31T05:45:22;11.70;99.90
15564;DHT22;7883;52.554;13.364;2023-03-31T05:47:51;11.70;99.90
15564;DHT22;7883;52.554;13.364;2023-03-31T05:50:18;11.80;99.90
15564;DHT22;7883;52.554;13.364;2023-03-31T05:52:47;11.80;99.90
15564;DHT22;7883;52.554;13.364;2023-03-31T05:55:14;11.80;99.90
15564;DHT22;7883;52.554;13.364;2023-03-31T05:57:43;11.90;99.90
15564;DHT22;7883;52.554;13.364;2023-03-31T06:00:11;11.90;99.90
15564;DHT22;7883;52.554;13.364;2023-03-31T06:02:39;11.90;99.90
15564;DHT22;7883;52.554;13.364;2023-03-31T06:05:08;11.90;99.90
15564;DHT22;7883;52.554;13.364;2023-03-31T06:07:35;12.00;99.90
15564;DHT22;7883;52.554;13.364;2023-03-31T06:10:04;12.00;99.90
15564;DHT22;7883;52.554;13.364;2023-03-31T06:12:36;11.90;99.90
15564;DHT22;7883;52.554;13.364;2023-03-31T06:15:05;12.00;99.90
15564;DHT22;7883;52.554;13.364;2023-03-31T06:17:33;11.90;99.90
15564;DHT22;7883;52.554;13.364;2023-03-31T06:20:00;11.90;99.90
15564;DHT22;7883;52.554;13.364;2023-03-31T06:22:33;11.90;99.90
15564;DHT22;7883;52.554;13.364;2023-03-31T06:25:01;11.80;99.90
15564;DHT22;7883;52.554;13.364;2023-03-31T06:27:28;11.90;99.90
15564;DHT22;7883;52.554;13.364;2023-03-31T06:29:55;12.00;99.90
15564;DHT22;7883;52.554;13.364;2023-03-31T06:32:23;12.10;99.90
15564;DHT22;7883;52.554;13.364;2023-03-31T06:34:52;12.30;99.90
15564;DHT22;7883;52.554;13.364;2023-03-31T06:37:21;12.30;99.90
15564;DHT22;7883;52.554;13.364;2023-03-31T06:39:57;12.30;99.90
15564;DHT22;7883;52.554;13.364;2023-03-31T06:42:25;12.40;99.90
15564;DHT22;7883;52.554;13.364;2023-03-31T06:44:52;12.40;99.90
15564;DHT22;7883;52.554;13.364;2023-03-31T06:47:20;12.50;99.90
15564;DHT22;7883;52.554;13.364;2023-03-31T06:49:47;12.50;99.90
15564;DHT22;7883;52.554;13.364;2023-03-31T06:52:14;12.50;99.90
15564;DHT22;7883;52.554;13.364;2023-03-31T06:54:42;12.50;99.90
15564;DHT22;7883;52.554;13.364;2023-03-31T06:57:12;12.50;99.90
15564;DHT22;7883;52.554;13.364;2023-03-31T06:59:39;12.50;99.90
15564;DHT22;7883;52.554;13.364;2023-03-31T07:02:06;12.50;99.90
15564;DHT22;7883;52.554;13.364;2023-03-31T07:04:33;12.60;99.90
15564;DHT22;7883;52.554;13.364;2023-03-31T07:07:00;12.60;99.90
15564;DHT22;7883;52.554;13.364;2023-03-31T07:09:27;12.50;99.90
15564;DHT22;7883;52.554;13.364;2023-03-31T07:11:55;12.50;99.90
15564;DHT22;7883;52.554;13.364;2023-03-31T07:14:26;12.70;99.90
15564;DHT22;7883;52.554;13.364;2023-03-31T07:16:53;12.80;99.90
15564;DHT22;7883;52.554;13.364;2023-03-31T07:19:20;12.80;99.90
15564;DHT22;7883;52.554;13.364;2023-03-31T07:21:47;12.90;99.90
15564;DHT22;7883;52.554;13.364;2023-03-31T07:24:14;12.90;99.90
15564;DHT22;7883;52.554;13.364;2023-03-31T07:26:42;13.10;99.90
15564;DHT22;7883;52.554;13.364;2023-03-31T07:29:09;13.20;99.90
15564;DHT22;7883;52.554;13.364;2023-03-31T07:31:40;13.30;99.90
15564;DHT22;7883;52.554;13.364;2023-03-31T07:34:07;13.40;99.90
15564;DHT22;7883;52.554;13.364;2023-03-31T07:36:35;13.40;99.90
15564;DHT22;7883;52.554;13.364;2023-03-31T07:39:05;13.50;99.90
15564;DHT22;7883;52.554;13.364;2023-03-31T07:41:32;13.50;99.90
15564;DHT22;7883;52.554;13.364;2023-03-31T07:44:00;13.50;99.90
15564;DHT22;7883;52.554;13.364;2023-03-31T07:46:28;13.50;99.90
15564;DHT22;7883;52.554;13.364;2023-03-31T07:48:57;13.50;99.90
15564;DHT22;7883;52.554;13.364;2023-03-31T07:51:27;13.60;99.90
15564;DHT22;7883;52.554;13.364;2023-03-31T07:53:54;13.70;99.90
15564;DHT22;7883;52.554;13.364;2023-03-31T07:56:22;13.80;99.90
15564;DHT22;7883;52.554;13.364;2023-03-31T07:58:49;13.80;99.90
15564;DHT22;7883;52.554;13.364;2023-03-31T08:01:19;13.90;99.90
15564;DHT22;7883;52.554;13.364;2023-03-31T08:03:46;14.00;99.90
15564;DHT22;7883;52.554;13.364;2023-03-31T08:06:18;13.90;99.90
15564;DHT22;7883;52.554;13.364;2023-03-31T08:08:45;13.90;99.90
15564;DHT22;7883;52.554;13.364;2023-03-31T08:11:12;13.90;99.90
15564;DHT22;7883;52.554;13.364;2023-03-31T08:13:39;14.00;99.90
15564;DHT22;7883;52.554;13.364;2023-03-31T08:16:06;14.00;99.90
15564;DHT22;7883;52.554;13.364;2023-03-31T08:18:33;14.00;99.90
15564;DHT22;7883;52.554;13.364;2023-03-31T08:21:00;14.00;99.90
15564;DHT22;7883;52.554;13.364;2023-03-31T08:23:31;14.10;99.90
15564;DHT22;7883;52.554;13.364;2023-03-31T08:26:07;14.10;99.90
15564;DHT22;7883;52.554;13.364;2023-03-31T08:28:34;14.20;99.90
15564;DHT22;7883;52.554;13.364;2023-03-31T08:31:03;14.30;99.90
15564;DHT22;7883;52.554;13.364;2023-03-31T08:33:31;14.40;99.90
15564;DHT22;7883;52.554;13.364;2023-03-31T08:36:01;14.40;99.90
15564;DHT22;7883;52.554;13.364;2023-03-31T08:38:30;14.50;99.90
15564;DHT22;7883;52.554;13.364;2023-03-31T08:41:00;14.70;99.90
15564;DHT22;7883;52.554;13.364;2023-03-31T08:43:30;14.80;99.90
15564;DHT22;7883;52.554;13.364;2023-03-31T08:45:58;14.90;99.90
15564;DHT22;7883;52.554;13.364;2023-03-31T08:48:28;15.10;99.90
15564;DHT22;7883;52.554;13.364;2023-03-31T08:51:00;15.20;99.90
15564;DHT22;7883;52.554;13.364;2023-03-31T08:53:33;15.20;99.90
15564;DHT22;7883;52.554;13.364;2023-03-31T08:56:04;15.10;99.90
15564;DHT22;7883;52.554;13.364;2023-03-31T08:58:35;15.10;99.90
15564;DHT22;7883;52.554;13.364;2023-03-31T09:01:11;15.10;99.90
15564;DHT22;7883;52.554;13.364;2023-03-31T09:03:50;15.10;99.90
15564;DHT22;7883;52.554;13.364;2023-03-31T09:06:26;15.10;99.90
15564;DHT22;7883;52.554;13.364;2023-03-31T09:09:01;15.00;99.90
15564;DHT22;7883;52.554;13.364;2023-03-31T09:11:34;15.00;99.90
15564;DHT22;7883;52.554;13.364;2023-03-31T09:14:23;15.10;99.90
15564;DHT22;7883;52.554;13.364;2023-03-31T09:16:58;15.20;99.90
15564;DHT22;7883;52.554;13.364;2023-03-31T09:19:36;15.30;99.90
15564;DHT22;7883;52.554;13.364;2023-03-31T09:22:08;15.50;99.90
15564;DHT22;7883;52.554;13.364;2023-03-31T09:24:45;15.50;99.90
15564;DHT22;7883;52.554;13.364;2023-03-31T09:27:14;15.50;99.90
15564;DHT22;7883;52.554;13.364;2023-03-31T09:29:44;15.50;99.90
15564;DHT22;7883;52.554;13.364;2023-03-31T09:32:14;15.50;99.90
15564;DHT22;7883;52.554;13.364;2023-03-31T09:34:42;15.50;99.90
15564;DHT22;7883;52.554;13.364;2023-03-31T09:37:11;15.50;99.90
15564;DHT22;7883;52.554;13.364;2023-03-31T09:39:40;15.60;99.90
15564;DHT22;7883;52.554;13.364;2023-03-31T09:42:10;15.60;99.90
15564;DHT22;7883;52.554;13.364;2023-03-31T09:44:39;15.70;99.90
15564;DHT22;7883;52.554;13.364;2023-03-31T09:47:12;15.80;99.90
15564;DHT22;7883;52.554;13.364;2023-03-31T09:49:44;15.90;99.90
15564;DHT22;7883;52.554;13.364;2023-03-31T09:52:17;16.00;99.90
15564;DHT22;7883;52.554;13.364;2023-03-31T09:54:53;15.90;99.90
15564;DHT22;7883;52.554;13.364;2023-03-31T09:57:26;15.70;99.90
15564;DHT22;7883;52.554;13.364;2023-03-31T10:00:03;15.50;99.90
15564;DHT22;7883;52.554;13.364;2023-03-31T10:02:38;15.30;99.90
15564;DHT22;7883;52.554;13.364;2023-03-31T10:05:20;15.30;99.90
15564;DHT22;7883;52.554;13.364;2023-03-31T10:07:48;15.10;99.90
15564;DHT22;7883;52.554;13.364;2023-03-31T10:10:26;14.90;99.90
15564;DHT22;7883;52.554;13.364;2023-03-31T10:12:54;14.80;99.90
15564;DHT22;7883;52.554;13.364;2023-03-31T10:15:25;14.70;99.90
15564;DHT22;7883;52.554;13.364;2023-03-31T10:17:53;14.60;99.90
15564;DHT22;7883;52.554;13.364;2023-03-31T10:20:32;14.60;99.90
15564;DHT22;7883;52.554;13.364;2023-03-31T10:23:05;14.50;99.90
15564;DHT22;7883;52.554;13.364;2023-03-31T10:25:41;14.50;99.90
15564;DHT22;7883;52.554;13.364;2023-03-31T10:28:10;14.40;99.90
15564;DHT22;7883;52.554;13.364;2023-03-31T10:30:38;14.30;99.90
15564;DHT22;7883;52.554;13.364;2023-03-31T10:33:12;14.40;99.90
15564;DHT22;7883;52.554;13.364;2023-03-31T10:35:40;14.50;99.90
15564;DHT22;7883;52.554;13.364;2023-03-31T10:38:12;14.60;99.90
15564;DHT22;7883;52.554;13.364;2023-03-31T10:40:49;14.70;99.90
15564;DHT22;7883;52.554;13.364;2023-03-31T10:43:18;14.80;99.90
15564;DHT22;7883;52.554;13.364;2023-03-31T10:45:47;14.90;99.90
15564;DHT22;7883;52.554;13.364;2023-03-31T10:48:18;15.10;99.90
15564;DHT22;7883;52.554;13.364;2023-03-31T10:50:47;15.10;99.90
15564;DHT22;7883;52.554;13.364;2023-03-31T10:53:15;15.20;99.90
15564;DHT22;7883;52.554;13.364;2023-03-31T10:55:53;15.30;99.90
15564;DHT22;7883;52.554;13.364;2023-03-31T10:58:33;15.30;99.90
15564;DHT22;7883;52.554;13.364;2023-03-31T11:01:11;15.40;99.90
15564;DHT22;7883;52.554;13.364;2023-03-31T11:03:53;15.30;99.90
15564;DHT22;7883;52.554;13.364;2023-03-31T11:06:28;15.30;99.90
15564;DHT22;7883;52.554;13.364;2023-03-31T11:09:05;15.30;99.90
15564;DHT22;7883;52.554;13.364;2023-03-31T11:11:51;15.40;99.90
15564;DHT22;7883;52.554;13.364;2023-03-31T11:14:24;15.60;99.90
15564;DHT22;7883;52.554;13.364;2023-03-31T11:16:59;15.60;99.90
15564;DHT22;7883;52.554;13.364;2023-03-31T11:19:35;15.60;99.90
15564;DHT22;7883;52.554;13.364;2023-03-31T11:22:08;15.50;99.90
15564;DHT22;7883;52.554;13.364;2023-03-31T11:25:01;15.40;99.90
15564;DHT22;7883;52.554;13.364;2023-03-31T11:27:48;15.50;99.90
15564;DHT22;7883;52.554;13.364;2023-03-31T11:30:22;15.60;99.90
15564;DHT22;7883;52.554;13.364;2023-03-31T11:33:09;15.70;99.90
15564;DHT22;7883;52.554;13.364;2023-03-31T11:35:46;15.70;99.90
15564;DHT22;7883;52.554;13.364;2023-03-31T11:38:43;15.80;99.90
15564;DHT22;7883;52.554;13.364;2023-03-31T11:41:15;15.80;99.90
15564;DHT22;7883;52.554;13.364;2023-03-31T11:43:45;15.90;99.90
15564;DHT22;7883;52.554;13.364;2023-03-31T11:46:18;15.90;99.90
15564;DHT22;7883;52.554;13.364;2023-03-31T11:48:50;16.00;99.90
15564;DHT22;7883;52.554;13.364;2023-03-31T11:51:25;16.00;99.90
15564;DHT22;7883;52.554;13.364;2023-03-31T11:53:57;16.00;99.90
15564;DHT22;7883;52.554;13.364;2023-03-31T11:56:35;16.00;99.90
15564;DHT22;7883;52.554;13.364;2023-03-31T11:59:05;15.90;99.90
15564;DHT22;7883;52.554;13.364;2023-03-31T12:01:42;15.90;99.90
15564;DHT22;7883;52.554;13.364;2023-03-31T12:04:19;15.90;99.90
15564;DHT22;7883;52.554;13.364;2023-03-31T12:06:51;16.00;99.90
15564;DHT22;7883;52.554;13.364;2023-03-31T12:09:22;16.00;99.90
15564;DHT22;7883;52.554;13.364;2023-03-31T12:11:58;15.90;99.90
15564;DHT22;7883;52.554;13.364;2023-03-31T12:14:36;15.90;99.90
15564;DHT22;7883;52.554;13.364;2023-03-31T12:17:10;15.70;99.90
15564;DHT22;7883;52.554;13.364;2023-03-31T12:19:46;15.60;99.90
15564;DHT22;7883;52.554;13.364;2023-03-31T12:22:17;15.40;99.90
15564;DHT22;7883;52.554;13.364;2023-03-31T12:24:45;15.30;99.90
15564;DHT22;7883;52.554;13.364;2023-03-31T12:27:16;15.20;99.90
15564;DHT22;7883;52.554;13.364;2023-03-31T12:29:53;15.20;99.90
15564;DHT22;7883;52.554;13.364;2023-03-31T12:32:24;15.20;99.90
15564;DHT22;7883;52.554;13.364;2023-03-31T12:34:57;15.20;99.90
15564;DHT22;7883;52.554;13.364;2023-03-31T12:38:03;15.40;99.90
15564;DHT22;7883;52.554;13.364;2023-03-31T12:40:43;15.50;99.90
15564;DHT22;7883;52.554;13.364;2023-03-31T12:46:27;15.60;99.90
15564;DHT22;7883;52.554;13.364;2023-03-31T12:49:08;15.50;99.90
15564;DHT22;7883;52.554;13.364;2023-03-31T12:51:54;15.30;99.90
15564;DHT22;7883;52.554;13.364;2023-03-31T12:54:48;15.20;99.90
15564;DHT22;7883;52.554;13.364;2023-03-31T12:57:24;15.20;99.90
15564;DHT22;7883;52.554;13.364;2023-03-31T13:03:36;15.00;99.90
15564;DHT22;7883;52.554;13.364;2023-03-31T13:06:04;14.90;99.90
15564;DHT22;7883;52.554;13.364;2023-03-31T13:08:51;14.70;99.90
15564;DHT22;7883;52.554;13.364;2023-03-31T13:11:19;14.60;99.90
15564;DHT22;7883;52.554;13.364;2023-03-31T13:14:11;14.30;99.90
15564;DHT22;7883;52.554;13.364;2023-03-31T13:16:39;14.20;99.90
15564;DHT22;7883;52.554;13.364;2023-03-31T13:19:10;14.20;99.90
15564;DHT22;7883;52.554;13.364;2023-03-31T13:21:54;14.10;99.90
15564;DHT22;7883;52.554;13.364;2023-03-31T13:24:23;14.00;99.90
15564;DHT22;7883;52.554;13.364;2023-03-31T13:26:51;14.00;99.90
15564;DHT22;7883;52.554;13.364;2023-03-31T13:29:23;14.00;99.90
15564;DHT22;7883;52.554;13.364;2023-03-31T13:32:16;13.80;99.90
15564;DHT22;7883;52.554;13.364;2023-03-31T13:34:50;13.80;99.90
15564;DHT22;7883;52.554;13.364;2023-03-31T13:43:25;13.60;99.90
15564;DHT22;7883;52.554;13.364;2023-03-31T13:46:03;13.60;99.90
15564;DHT22;7883;52.554;13.364;2023-03-31T13:48:43;13.50;99.90
15564;DHT22;7883;52.554;13.364;2023-03-31T13:54:27;13.30;99.90
15564;DHT22;7883;52.554;13.364;2023-03-31T13:57:39;13.20;99.90
15564;DHT22;7883;52.554;13.364;2023-03-31T14:00:29;13.30;99.90
15564;DHT22;7883;52.554;13.364;2023-03-31T14:05:52;13.30;99.90
15564;DHT22;7883;52.554;13.364;2023-03-31T14:08:35;13.40;99.90
15564;DHT22;7883;52.554;13.364;2023-03-31T14:11:16;13.10;99.90
15564;DHT22;7883;52.554;13.364;2023-03-31T14:13:43;12.80;99.90
15564;DHT22;7883;52.554;13.364;2023-03-31T14:16:12;12.80;99.90
15564;DHT22;7883;52.554;13.364;2023-03-31T14:18:45;12.70;99.90
15564;DHT22;7883;52.554;13.364;2023-03-31T14:21:20;12.80;99.90
15564;DHT22;7883;52.554;13.364;2023-03-31T14:24:00;12.80;99.90
15564;DHT22;7883;52.554;13.364;2023-03-31T14:26:46;12.80;99.90
15564;DHT22;7883;52.554;13.364;2023-03-31T14:29:21;12.80;99.90
15564;DHT22;7883;52.554;13.364;2023-03-31T14:31:56;12.70;99.90
15564;DHT22;7883;52.554;13.364;2023-03-31T14:34:43;12.70;99.90
15564;DHT22;7883;52.554;13.364;2023-03-31T14:37:13;12.60;99.90
15564;DHT22;7883;52.554;13.364;2023-03-31T14:39:45;12.70;99.90
15564;DHT22;7883;52.554;13.364;2023-03-31T14:42:15;12.60;99.90
15564;DHT22;7883;52.554;13.364;2023-03-31T14:44:43;12.70;99.90
15564;DHT22;7883;52.554;13.364;2023-03-31T14:47:19;12.80;99.90
15564;DHT22;7883;52.554;13.364;2023-03-31T14:49:47;12.70;99.90
15564;DHT22;7883;52.554;13.364;2023-03-31T14:52:16;12.70;99.90
15564;DHT22;7883;52.554;13.364;2023-03-31T14:54:46;12.60;99.90
15564;DHT22;7883;52.554;13.364;2023-03-31T14:57:17;12.50;99.90
15564;DHT22;7883;52.554;13.364;2023-03-31T14:59:47;12.50;99.90
15564;DHT22;7883;52.554;13.364;2023-03-31T15:02:22;12.60;99.90
15564;DHT22;7883;52.554;13.364;2023-03-31T15:04:51;12.70;99.90
15564;DHT22;7883;52.554;13.364;2023-03-31T15:07:19;12.60;99.90
15564;DHT22;7883;52.554;13.364;2023-03-31T15:09:51;12.60;99.90
15564;DHT22;7883;52.554;13.364;2023-03-31T15:12:19;12.60;99.90
15564;DHT22;7883;52.554;13.364;2023-03-31T15:14:49;12.60;99.90
15564;DHT22;7883;52.554;13.364;2023-03-31T15:17:22;12.50;99.90
15564;DHT22;7883;52.554;13.364;2023-03-31T15:19:55;12.60;99.90
15564;DHT22;7883;52.554;13.364;2023-03-31T15:22:23;12.60;99.90
15564;DHT22;7883;52.554;13.364;2023-03-31T15:24:54;12.50;99.90
15564;DHT22;7883;52.554;13.364;2023-03-31T15:27:30;12.50;99.90
15564;DHT22;7883;52.554;13.364;2023-03-31T15:29:59;12.40;99.90
15564;DHT22;7883;52.554;13.364;2023-03-31T15:32:29;12.40;99.90
15564;DHT22;7883;52.554;13.364;2023-03-31T15:34:57;12.50;99.90
15564;DHT22;7883;52.554;13.364;2023-03-31T15:37:26;12.50;99.90
15564;DHT22;7883;52.554;13.364;2023-03-31T15:39:59;12.50;99.90
15564;DHT22;7883;52.554;13.364;2023-03-31T15:42:28;12.50;99.90
15564;DHT22;7883;52.554;13.364;2023-03-31T15:44:56;12.50;99.90
15564;DHT22;7883;52.554;13.364;2023-03-31T15:47:37;12.40;99.90
15564;DHT22;7883;52.554;13.364;2023-03-31T15:50:14;12.40;99.90
15564;DHT22;7883;52.554;13.364;2023-03-31T15:52:46;12.40;99.90
15564;DHT22;7883;52.554;13.364;2023-03-31T15:55:26;12.30;99.90
15564;DHT22;7883;52.554;13.364;2023-03-31T15:57:55;12.30;99.90
15564;DHT22;7883;52.554;13.364;2023-03-31T16:00:44;12.30;99.90
15564;DHT22;7883;52.554;13.364;2023-03-31T16:03:17;12.40;99.90
15564;DHT22;7883;52.554;13.364;2023-03-31T16:05:50;12.30;99.90
15564;DHT22;7883;52.554;13.364;2023-03-31T16:08:22;12.40;99.90
15564;DHT22;7883;52.554;13.364;2023-03-31T16:10:57;12.30;99.90
15564;DHT22;7883;52.554;13.364;2023-03-31T16:13:27;12.30;99.90
15564;DHT22;7883;52.554;13.364;2023-03-31T16:15:56;12.30;99.90
15564;DHT22;7883;52.554;13.364;2023-03-31T16:18:28;12.20;99.90
15564;DHT22;7883;52.554;13.364;2023-03-31T16:20:58;12.20;99.90
15564;DHT22;7883;52.554;13.364;2023-03-31T16:23:29;12.20;99.90